Aurora, IL

1:23 PM CST on December 25, 2014 (GMT -0600)
Stonehaven | Change Station
CLOSE
Current Station
Personal Weather Station
Location: Aurora, IL
Elevation: 699 ft
Nearby Weather Stations

Elev 699 ft 41.74 °N, 88.21 °W | Updated 13 minutes ago

Partly Cloudy
Partly Cloudy
40.8 °F
Feels Like 41 °F
N
2.2
Wind Variable Wind from SW

Today
High -- | Low -- °F
--% Chance of Precip.
Yesterday
High -- | Low -- °F
Precip. -- in
7:18 AM 4:27 PM
Waxing Crescent, 18% visible
Pressure 29.96 in
Visibility 10.0 miles
Clouds Few 2100 ft
Windchill 41 °F
Dew Point 34 °F
Humidity 75%
Rainfall 0.00 in
Snow Depth Not available.
UV 2 out of 12
Pollen .10 out of 12
Air Quality Not available.
Flu Activity Not available.
METAR KDPA 251852Z 21013KT 10SM FEW021 04/M01 A2994 RMK AO2 SLP144 T00441006

More Conditions Fewer Conditions

Pressure 29.96 in
Visibility 10.0 miles
Clouds Few 2100 ft
Windchill 41 °F
Dew Point 34 °F
Humidity 75%
Rainfall 0.00 in
Snow Depth Not available.
UV 2 out of 12
Pollen .10 out of 12
Air Quality Not available.
Flu Activity Not available.
METAR KDPA 251852Z 21013KT 10SM FEW021 04/M01 A2994 RMK AO2 SLP144 T00441006

More Conditions Fewer Conditions

10-Day Weather Forecast

Almanac

Astronomy

Dec. 25, 2014 Rise Set
Actual Time
Civil Twilight
Nautical Twilight
Astronomical Twilight
Moon
Length of Visible Light
Length of Day
Tomorrow will be .
, % of the Moon is Illuminated

Today's Extremes

State Highs State Lows

Community

WunderPhotos

Upload Photos

1,780,368 photos uploaded!

WunderBlogs® & News

Nearby

Air Quality

  Air Quality AQ Index Pollutant
Not available.

Snow Depth

Station Depth Elevation

Earthquake Activity

City Distance Mag. Time & Date
Minimum magnitude displayed is 2.5.

Coastal Water Temperatures

Place Temperature

Nearby Weather Stations